sensor_id;sensor_type;location;lat;lon;timestamp;P1;durP1;ratioP1;P2;durP2;ratioP2
69894;SDS011;57172;52.034;5.090;2023-02-15T00:01:42;41.78;;;20.70;;
69894;SDS011;57172;52.034;5.090;2023-02-15T00:04:11;37.00;;;18.60;;
69894;SDS011;57172;52.034;5.090;2023-02-15T00:06:40;37.88;;;19.90;;
69894;SDS011;57172;52.034;5.090;2023-02-15T00:09:08;40.03;;;19.17;;
69894;SDS011;57172;52.034;5.090;2023-02-15T00:11:36;37.42;;;19.30;;
69894;SDS011;57172;52.034;5.090;2023-02-15T00:16:34;41.25;;;19.95;;
69894;SDS011;57172;52.034;5.090;2023-02-15T00:19:01;40.13;;;20.23;;
69894;SDS011;57172;52.034;5.090;2023-02-15T00:21:33;40.07;;;19.57;;
69894;SDS011;57172;52.034;5.090;2023-02-15T00:24:01;41.03;;;20.83;;
69894;SDS011;57172;52.034;5.090;2023-02-15T00:26:30;38.55;;;20.50;;
69894;SDS011;57172;52.034;5.090;2023-02-15T00:28:57;38.47;;;19.92;;
69894;SDS011;57172;52.034;5.090;2023-02-15T00:31:26;40.38;;;20.40;;
69894;SDS011;57172;52.034;5.090;2023-02-15T00:33:54;44.97;;;20.40;;
69894;SDS011;57172;52.034;5.090;2023-02-15T00:36:21;45.42;;;21.75;;
69894;SDS011;57172;52.034;5.090;2023-02-15T00:38:48;41.53;;;20.65;;
69894;SDS011;57172;52.034;5.090;2023-02-15T00:41:15;39.90;;;19.77;;
69894;SDS011;57172;52.034;5.090;2023-02-15T00:43:42;38.33;;;20.13;;
69894;SDS011;57172;52.034;5.090;2023-02-15T00:46:09;41.27;;;20.30;;
69894;SDS011;57172;52.034;5.090;2023-02-15T00:48:38;42.65;;;20.83;;
69894;SDS011;57172;52.034;5.090;2023-02-15T00:51:05;38.92;;;20.05;;
69894;SDS011;57172;52.034;5.090;2023-02-15T00:53:31;40.13;;;19.25;;
69894;SDS011;57172;52.034;5.090;2023-02-15T00:55:59;40.65;;;20.17;;
69894;SDS011;57172;52.034;5.090;2023-02-15T00:58:26;39.37;;;19.80;;
69894;SDS011;57172;52.034;5.090;2023-02-15T01:00:53;40.45;;;19.95;;
69894;SDS011;57172;52.034;5.090;2023-02-15T01:03:22;40.47;;;20.52;;
69894;SDS011;57172;52.034;5.090;2023-02-15T01:05:49;41.78;;;20.35;;
69894;SDS011;57172;52.034;5.090;2023-02-15T01:08:16;39.17;;;20.25;;
69894;SDS011;57172;52.034;5.090;2023-02-15T01:10:43;41.20;;;20.03;;
69894;SDS011;57172;52.034;5.090;2023-02-15T01:13:12;39.05;;;19.27;;
69894;SDS011;57172;52.034;5.090;2023-02-15T01:15:40;41.42;;;19.70;;
69894;SDS011;57172;52.034;5.090;2023-02-15T01:18:12;43.83;;;20.17;;
69894;SDS011;57172;52.034;5.090;2023-02-15T01:20:39;39.78;;;19.88;;
69894;SDS011;57172;52.034;5.090;2023-02-15T01:23:07;37.77;;;19.77;;
69894;SDS011;57172;52.034;5.090;2023-02-15T01:25:35;39.95;;;19.27;;
69894;SDS011;57172;52.034;5.090;2023-02-15T01:28:02;39.05;;;19.58;;
69894;SDS011;57172;52.034;5.090;2023-02-15T01:30:31;41.75;;;20.42;;
69894;SDS011;57172;52.034;5.090;2023-02-15T01:32:58;41.25;;;19.80;;
69894;SDS011;57172;52.034;5.090;2023-02-15T01:35:29;42.27;;;19.70;;
69894;SDS011;57172;52.034;5.090;2023-02-15T01:37:56;40.33;;;19.42;;
69894;SDS011;57172;52.034;5.090;2023-02-15T01:40:23;43.65;;;19.45;;
69894;SDS011;57172;52.034;5.090;2023-02-15T01:42:54;40.92;;;20.40;;
69894;SDS011;57172;52.034;5.090;2023-02-15T01:47:58;39.43;;;19.40;;
69894;SDS011;57172;52.034;5.090;2023-02-15T01:50:43;41.72;;;19.25;;
69894;SDS011;57172;52.034;5.090;2023-02-15T01:53:16;48.83;;;21.13;;
69894;SDS011;57172;52.034;5.090;2023-02-15T01:55:47;40.03;;;19.90;;
69894;SDS011;57172;52.034;5.090;2023-02-15T01:58:21;42.78;;;20.10;;
69894;SDS011;57172;52.034;5.090;2023-02-15T02:00:50;43.43;;;20.07;;
69894;SDS011;57172;52.034;5.090;2023-02-15T02:03:18;38.78;;;19.08;;
69894;SDS011;57172;52.034;5.090;2023-02-15T02:06:02;42.60;;;20.67;;
69894;SDS011;57172;52.034;5.090;2023-02-15T02:08:29;40.63;;;19.42;;
69894;SDS011;57172;52.034;5.090;2023-02-15T02:10:57;43.85;;;20.10;;
69894;SDS011;57172;52.034;5.090;2023-02-15T02:13:24;40.53;;;19.23;;
69894;SDS011;57172;52.034;5.090;2023-02-15T02:15:57;40.08;;;19.05;;
69894;SDS011;57172;52.034;5.090;2023-02-15T02:18:37;41.08;;;19.33;;
69894;SDS011;57172;52.034;5.090;2023-02-15T02:33:16;39.30;;;18.23;;
69894;SDS011;57172;52.034;5.090;2023-02-15T02:36:00;41.13;;;18.65;;
69894;SDS011;57172;52.034;5.090;2023-02-15T02:46:59;40.95;;;19.63;;
69894;SDS011;57172;52.034;5.090;2023-02-15T02:49:36;46.83;;;20.45;;
69894;SDS011;57172;52.034;5.090;2023-02-15T02:52:33;44.22;;;20.15;;
69894;SDS011;57172;52.034;5.090;2023-02-15T02:55:11;40.97;;;18.77;;
69894;SDS011;57172;52.034;5.090;2023-02-15T03:00:35;39.97;;;19.02;;
69894;SDS011;57172;52.034;5.090;2023-02-15T03:03:11;45.88;;;20.52;;
69894;SDS011;57172;52.034;5.090;2023-02-15T03:05:44;40.90;;;19.55;;
69894;SDS011;57172;52.034;5.090;2023-02-15T03:08:14;41.70;;;19.73;;
69894;SDS011;57172;52.034;5.090;2023-02-15T03:10:49;39.10;;;18.67;;
69894;SDS011;57172;52.034;5.090;2023-02-15T03:13:20;47.63;;;20.48;;
69894;SDS011;57172;52.034;5.090;2023-02-15T03:15:48;44.97;;;20.50;;
69894;SDS011;57172;52.034;5.090;2023-02-15T03:18:39;42.33;;;19.10;;
69894;SDS011;57172;52.034;5.090;2023-02-15T03:21:10;44.17;;;20.13;;
69894;SDS011;57172;52.034;5.090;2023-02-15T03:23:49;44.50;;;19.65;;
69894;SDS011;57172;52.034;5.090;2023-02-15T03:26:20;58.00;;;22.35;;
69894;SDS011;57172;52.034;5.090;2023-02-15T03:28:49;47.20;;;21.25;;
69894;SDS011;57172;52.034;5.090;2023-02-15T03:31:20;53.10;;;21.65;;
69894;SDS011;57172;52.034;5.090;2023-02-15T03:33:55;47.63;;;21.23;;
69894;SDS011;57172;52.034;5.090;2023-02-15T03:39:30;53.15;;;22.40;;
69894;SDS011;57172;52.034;5.090;2023-02-15T03:44:33;50.42;;;21.77;;
69894;SDS011;57172;52.034;5.090;2023-02-15T03:47:13;45.87;;;20.23;;
69894;SDS011;57172;52.034;5.090;2023-02-15T03:49:46;39.25;;;18.98;;
69894;SDS011;57172;52.034;5.090;2023-02-15T03:52:19;45.20;;;20.25;;
69894;SDS011;57172;52.034;5.090;2023-02-15T03:54:48;52.38;;;21.52;;
69894;SDS011;57172;52.034;5.090;2023-02-15T03:57:17;51.40;;;22.48;;
69894;SDS011;57172;52.034;5.090;2023-02-15T04:00:15;49.23;;;20.80;;
69894;SDS011;57172;52.034;5.090;2023-02-15T04:05:48;50.92;;;21.77;;
69894;SDS011;57172;52.034;5.090;2023-02-15T04:08:15;48.50;;;21.30;;
69894;SDS011;57172;52.034;5.090;2023-02-15T04:10:42;45.42;;;21.08;;
69894;SDS011;57172;52.034;5.090;2023-02-15T04:13:22;52.80;;;22.03;;
69894;SDS011;57172;52.034;5.090;2023-02-15T04:15:50;46.78;;;21.38;;
69894;SDS011;57172;52.034;5.090;2023-02-15T04:18:40;48.13;;;21.77;;
69894;SDS011;57172;52.034;5.090;2023-02-15T04:21:27;50.95;;;22.52;;
69894;SDS011;57172;52.034;5.090;2023-02-15T04:24:14;52.20;;;22.58;;
69894;SDS011;57172;52.034;5.090;2023-02-15T04:27:01;52.73;;;22.17;;
69894;SDS011;57172;52.034;5.090;2023-02-15T04:29:29;48.70;;;21.75;;
69894;SDS011;57172;52.034;5.090;2023-02-15T04:31:58;44.33;;;20.77;;
69894;SDS011;57172;52.034;5.090;2023-02-15T04:34:26;48.17;;;22.05;;
69894;SDS011;57172;52.034;5.090;2023-02-15T04:36:52;46.92;;;21.02;;
69894;SDS011;57172;52.034;5.090;2023-02-15T04:39:19;50.17;;;21.83;;
69894;SDS011;57172;52.034;5.090;2023-02-15T04:41:46;50.05;;;21.00;;
69894;SDS011;57172;52.034;5.090;2023-02-15T04:44:14;49.45;;;21.25;;
69894;SDS011;57172;52.034;5.090;2023-02-15T04:46:41;50.53;;;21.58;;
69894;SDS011;57172;52.034;5.090;2023-02-15T04:49:08;45.35;;;20.70;;
69894;SDS011;57172;52.034;5.090;2023-02-15T04:51:35;49.77;;;21.33;;
69894;SDS011;57172;52.034;5.090;2023-02-15T04:54:02;52.47;;;22.48;;
69894;SDS011;57172;52.034;5.090;2023-02-15T04:56:29;51.38;;;21.67;;
69894;SDS011;57172;52.034;5.090;2023-02-15T04:58:56;53.30;;;21.67;;
69894;SDS011;57172;52.034;5.090;2023-02-15T05:01:23;51.65;;;22.27;;
69894;SDS011;57172;52.034;5.090;2023-02-15T05:03:50;46.97;;;21.40;;
69894;SDS011;57172;52.034;5.090;2023-02-15T05:06:17;45.40;;;19.83;;
69894;SDS011;57172;52.034;5.090;2023-02-15T05:08:44;48.40;;;20.77;;
69894;SDS011;57172;52.034;5.090;2023-02-15T05:11:10;45.17;;;20.10;;
69894;SDS011;57172;52.034;5.090;2023-02-15T05:13:37;50.10;;;21.17;;
69894;SDS011;57172;52.034;5.090;2023-02-15T05:16:04;48.80;;;21.07;;
69894;SDS011;57172;52.034;5.090;2023-02-15T05:18:31;47.80;;;21.40;;
69894;SDS011;57172;52.034;5.090;2023-02-15T05:20:58;46.78;;;20.42;;
69894;SDS011;57172;52.034;5.090;2023-02-15T05:23:24;44.13;;;19.95;;
69894;SDS011;57172;52.034;5.090;2023-02-15T05:25:51;48.95;;;21.70;;
69894;SDS011;57172;52.034;5.090;2023-02-15T05:28:37;46.03;;;20.20;;
69894;SDS011;57172;52.034;5.090;2023-02-15T05:31:10;44.42;;;20.00;;
69894;SDS011;57172;52.034;5.090;2023-02-15T05:33:40;46.20;;;20.85;;
69894;SDS011;57172;52.034;5.090;2023-02-15T05:36:07;45.40;;;19.25;;
69894;SDS011;57172;52.034;5.090;2023-02-15T05:38:34;49.72;;;20.77;;
69894;SDS011;57172;52.034;5.090;2023-02-15T05:41:08;46.97;;;21.53;;
69894;SDS011;57172;52.034;5.090;2023-02-15T05:43:36;46.45;;;21.45;;
69894;SDS011;57172;52.034;5.090;2023-02-15T05:46:03;45.85;;;20.25;;
69894;SDS011;57172;52.034;5.090;2023-02-15T05:48:31;56.13;;;21.80;;
69894;SDS011;57172;52.034;5.090;2023-02-15T05:51:11;51.47;;;21.95;;
69894;SDS011;57172;52.034;5.090;2023-02-15T05:53:40;45.47;;;20.27;;
69894;SDS011;57172;52.034;5.090;2023-02-15T05:56:09;50.95;;;20.83;;
69894;SDS011;57172;52.034;5.090;2023-02-15T05:58:38;44.55;;;21.00;;
69894;SDS011;57172;52.034;5.090;2023-02-15T06:01:09;44.75;;;20.30;;
69894;SDS011;57172;52.034;5.090;2023-02-15T06:03:41;45.70;;;19.85;;
69894;SDS011;57172;52.034;5.090;2023-02-15T06:06:08;41.77;;;19.00;;
69894;SDS011;57172;52.034;5.090;2023-02-15T06:08:36;47.90;;;19.58;;
69894;SDS011;57172;52.034;5.090;2023-02-15T06:11:04;45.72;;;19.73;;
69894;SDS011;57172;52.034;5.090;2023-02-15T06:13:31;45.90;;;18.92;;
69894;SDS011;57172;52.034;5.090;2023-02-15T06:16:03;46.75;;;19.95;;
69894;SDS011;57172;52.034;5.090;2023-02-15T06:18:31;49.23;;;19.93;;
69894;SDS011;57172;52.034;5.090;2023-02-15T06:20:57;52.03;;;21.00;;
69894;SDS011;57172;52.034;5.090;2023-02-15T06:23:24;49.67;;;20.48;;
69894;SDS011;57172;52.034;5.090;2023-02-15T06:25:51;46.28;;;19.80;;
69894;SDS011;57172;52.034;5.090;2023-02-15T06:28:18;51.58;;;20.60;;
69894;SDS011;57172;52.034;5.090;2023-02-15T06:30:45;48.33;;;21.03;;
69894;SDS011;57172;52.034;5.090;2023-02-15T06:33:12;47.75;;;20.00;;
69894;SDS011;57172;52.034;5.090;2023-02-15T06:35:39;51.97;;;19.70;;
69894;SDS011;57172;52.034;5.090;2023-02-15T06:38:06;47.15;;;20.15;;
69894;SDS011;57172;52.034;5.090;2023-02-15T06:40:33;45.05;;;20.08;;
69894;SDS011;57172;52.034;5.090;2023-02-15T06:43:00;48.07;;;19.93;;
69894;SDS011;57172;52.034;5.090;2023-02-15T06:45:26;48.50;;;20.20;;
69894;SDS011;57172;52.034;5.090;2023-02-15T06:47:53;46.67;;;19.80;;
69894;SDS011;57172;52.034;5.090;2023-02-15T06:50:20;49.67;;;19.50;;
69894;SDS011;57172;52.034;5.090;2023-02-15T06:52:47;49.05;;;19.98;;
69894;SDS011;57172;52.034;5.090;2023-02-15T06:55:14;50.17;;;20.10;;
69894;SDS011;57172;52.034;5.090;2023-02-15T06:57:41;48.95;;;19.88;;
69894;SDS011;57172;52.034;5.090;2023-02-15T07:00:08;47.63;;;20.63;;
69894;SDS011;57172;52.034;5.090;2023-02-15T07:02:35;45.97;;;20.15;;
69894;SDS011;57172;52.034;5.090;2023-02-15T07:05:02;47.85;;;19.58;;
69894;SDS011;57172;52.034;5.090;2023-02-15T07:07:31;46.30;;;19.63;;
69894;SDS011;57172;52.034;5.090;2023-02-15T07:09:58;46.75;;;19.17;;
69894;SDS011;57172;52.034;5.090;2023-02-15T07:12:25;44.65;;;20.13;;
69894;SDS011;57172;52.034;5.090;2023-02-15T07:15:12;44.95;;;18.95;;
69894;SDS011;57172;52.034;5.090;2023-02-15T07:17:41;48.10;;;20.50;;
69894;SDS011;57172;52.034;5.090;2023-02-15T07:20:10;51.47;;;20.17;;
69894;SDS011;57172;52.034;5.090;2023-02-15T07:22:39;47.53;;;20.10;;
69894;SDS011;57172;52.034;5.090;2023-02-15T07:25:06;52.20;;;20.88;;
69894;SDS011;57172;52.034;5.090;2023-02-15T07:27:34;46.88;;;19.80;;
69894;SDS011;57172;52.034;5.090;2023-02-15T07:30:02;46.30;;;20.13;;
69894;SDS011;57172;52.034;5.090;2023-02-15T07:32:31;47.07;;;19.83;;
69894;SDS011;57172;52.034;5.090;2023-02-15T07:34:58;44.50;;;18.83;;
69894;SDS011;57172;52.034;5.090;2023-02-15T07:37:26;45.33;;;18.38;;
69894;SDS011;57172;52.034;5.090;2023-02-15T07:39:53;41.70;;;18.90;;
69894;SDS011;57172;52.034;5.090;2023-02-15T07:42:20;41.15;;;18.58;;
69894;SDS011;57172;52.034;5.090;2023-02-15T07:44:48;43.13;;;19.03;;
69894;SDS011;57172;52.034;5.090;2023-02-15T07:47:15;39.97;;;18.48;;
69894;SDS011;57172;52.034;5.090;2023-02-15T07:49:42;38.72;;;18.67;;
69894;SDS011;57172;52.034;5.090;2023-02-15T07:52:09;41.45;;;18.02;;
69894;SDS011;57172;52.034;5.090;2023-02-15T07:54:35;37.83;;;18.33;;
69894;SDS011;57172;52.034;5.090;2023-02-15T07:57:02;37.80;;;18.20;;
69894;SDS011;57172;52.034;5.090;2023-02-15T07:59:29;37.83;;;17.30;;
69894;SDS011;57172;52.034;5.090;2023-02-15T08:01:56;42.33;;;18.35;;
69894;SDS011;57172;52.034;5.090;2023-02-15T08:04:23;41.63;;;19.15;;
69894;SDS011;57172;52.034;5.090;2023-02-15T08:06:53;41.38;;;19.67;;
69894;SDS011;57172;52.034;5.090;2023-02-15T08:09:21;40.57;;;19.60;;
69894;SDS011;57172;52.034;5.090;2023-02-15T08:11:48;39.40;;;19.17;;
69894;SDS011;57172;52.034;5.090;2023-02-15T08:14:21;41.42;;;19.42;;
69894;SDS011;57172;52.034;5.090;2023-02-15T08:16:51;36.13;;;19.02;;
69894;SDS011;57172;52.034;5.090;2023-02-15T08:21:50;42.47;;;19.27;;
69894;SDS011;57172;52.034;5.090;2023-02-15T08:24:19;39.72;;;18.27;;
69894;SDS011;57172;52.034;5.090;2023-02-15T08:26:48;41.67;;;18.83;;
69894;SDS011;57172;52.034;5.090;2023-02-15T08:29:16;40.30;;;19.98;;
69894;SDS011;57172;52.034;5.090;2023-02-15T08:31:55;42.13;;;20.38;;
69894;SDS011;57172;52.034;5.090;2023-02-15T08:34:29;38.93;;;19.83;;
69894;SDS011;57172;52.034;5.090;2023-02-15T08:36:58;39.10;;;19.30;;
69894;SDS011;57172;52.034;5.090;2023-02-15T08:39:24;44.13;;;20.67;;
69894;SDS011;57172;52.034;5.090;2023-02-15T08:41:51;42.63;;;19.50;;
69894;SDS011;57172;52.034;5.090;2023-02-15T08:44:18;42.45;;;19.33;;
69894;SDS011;57172;52.034;5.090;2023-02-15T08:46:46;40.73;;;19.87;;
69894;SDS011;57172;52.034;5.090;2023-02-15T08:49:18;44.00;;;21.27;;
69894;SDS011;57172;52.034;5.090;2023-02-15T08:51:46;41.03;;;20.13;;
69894;SDS011;57172;52.034;5.090;2023-02-15T08:54:15;48.70;;;20.45;;
69894;SDS011;57172;52.034;5.090;2023-02-15T08:56:47;43.22;;;20.20;;
69894;SDS011;57172;52.034;5.090;2023-02-15T08:59:18;39.40;;;20.43;;
69894;SDS011;57172;52.034;5.090;2023-02-15T09:01:47;37.85;;;18.75;;
69894;SDS011;57172;52.034;5.090;2023-02-15T09:04:15;42.58;;;19.85;;
69894;SDS011;57172;52.034;5.090;2023-02-15T09:06:42;42.35;;;20.30;;
69894;SDS011;57172;52.034;5.090;2023-02-15T09:09:13;39.83;;;19.63;;
69894;SDS011;57172;52.034;5.090;2023-02-15T09:11:42;37.63;;;20.10;;
69894;SDS011;57172;52.034;5.090;2023-02-15T09:14:14;43.42;;;21.38;;
69894;SDS011;57172;52.034;5.090;2023-02-15T09:16:43;42.65;;;19.15;;
69894;SDS011;57172;52.034;5.090;2023-02-15T09:19:16;38.67;;;20.70;;
69894;SDS011;57172;52.034;5.090;2023-02-15T09:21:44;37.08;;;19.23;;
69894;SDS011;57172;52.034;5.090;2023-02-15T09:24:12;40.80;;;20.90;;
69894;SDS011;57172;52.034;5.090;2023-02-15T09:26:42;39.95;;;20.63;;
69894;SDS011;57172;52.034;5.090;2023-02-15T09:29:10;39.47;;;21.23;;
69894;SDS011;57172;52.034;5.090;2023-02-15T09:31:42;39.38;;;21.02;;
69894;SDS011;57172;52.034;5.090;2023-02-15T09:34:12;41.20;;;21.33;;
69894;SDS011;57172;52.034;5.090;2023-02-15T09:36:40;41.93;;;20.97;;
69894;SDS011;57172;52.034;5.090;2023-02-15T09:39:14;39.85;;;20.60;;
69894;SDS011;57172;52.034;5.090;2023-02-15T10:06:50;39.97;;;21.55;;
69894;SDS011;57172;52.034;5.090;2023-02-15T10:25:50;38.72;;;23.80;;
69894;SDS011;57172;52.034;5.090;2023-02-15T10:28:45;36.75;;;21.52;;
69894;SDS011;57172;52.034;5.090;2023-02-15T10:33:50;36.55;;;21.83;;
69894;SDS011;57172;52.034;5.090;2023-02-15T10:39:04;38.22;;;22.52;;
69894;SDS011;57172;52.034;5.090;2023-02-15T10:41:46;34.42;;;20.75;;
69894;SDS011;57172;52.034;5.090;2023-02-15T10:47:25;37.60;;;23.52;;
69894;SDS011;57172;52.034;5.090;2023-02-15T11:06:43;35.75;;;22.33;;
69894;SDS011;57172;52.034;5.090;2023-02-15T11:09:17;40.33;;;23.02;;
69894;SDS011;57172;52.034;5.090;2023-02-15T11:11:56;39.77;;;23.67;;
69894;SDS011;57172;52.034;5.090;2023-02-15T11:17:02;37.38;;;22.50;;
69894;SDS011;57172;52.034;5.090;2023-02-15T11:19:32;40.55;;;23.48;;
69894;SDS011;57172;52.034;5.090;2023-02-15T11:22:04;42.72;;;24.02;;
69894;SDS011;57172;52.034;5.090;2023-02-15T11:24:34;41.80;;;22.03;;
69894;SDS011;57172;52.034;5.090;2023-02-15T11:29:52;43.47;;;24.58;;
69894;SDS011;57172;52.034;5.090;2023-02-15T11:37:51;41.40;;;25.33;;
69894;SDS011;57172;52.034;5.090;2023-02-15T11:43:02;39.30;;;24.60;;
69894;SDS011;57172;52.034;5.090;2023-02-15T11:45:34;44.45;;;26.08;;
69894;SDS011;57172;52.034;5.090;2023-02-15T11:48:02;47.30;;;29.75;;
69894;SDS011;57172;52.034;5.090;2023-02-15T11:50:36;43.53;;;26.47;;
69894;SDS011;57172;52.034;5.090;2023-02-15T11:53:17;41.50;;;26.30;;
69894;SDS011;57172;52.034;5.090;2023-02-15T11:55:46;44.72;;;27.40;;
69894;SDS011;57172;52.034;5.090;2023-02-15T11:58:32;42.50;;;26.77;;
69894;SDS011;57172;52.034;5.090;2023-02-15T12:01:34;41.35;;;26.20;;
69894;SDS011;57172;52.034;5.090;2023-02-15T12:04:24;41.40;;;25.10;;
69894;SDS011;57172;52.034;5.090;2023-02-15T12:07:17;42.53;;;24.33;;
69894;SDS011;57172;52.034;5.090;2023-02-15T12:14:53;45.63;;;26.67;;
69894;SDS011;57172;52.034;5.090;2023-02-15T12:17:23;43.63;;;26.70;;
69894;SDS011;57172;52.034;5.090;2023-02-15T12:19:52;41.47;;;26.17;;
69894;SDS011;57172;52.034;5.090;2023-02-15T12:22:24;41.00;;;23.33;;
69894;SDS011;57172;52.034;5.090;2023-02-15T12:24:55;40.92;;;24.95;;
69894;SDS011;57172;52.034;5.090;2023-02-15T12:27:29;41.65;;;26.60;;
69894;SDS011;57172;52.034;5.090;2023-02-15T12:30:03;45.00;;;26.50;;
69894;SDS011;57172;52.034;5.090;2023-02-15T12:32:49;51.45;;;33.85;;
69894;SDS011;57172;52.034;5.090;2023-02-15T12:35:29;41.72;;;27.42;;
69894;SDS011;57172;52.034;5.090;2023-02-15T12:38:03;39.20;;;26.13;;
69894;SDS011;57172;52.034;5.090;2023-02-15T12:40:56;44.47;;;27.50;;
69894;SDS011;57172;52.034;5.090;2023-02-15T12:43:32;41.67;;;27.10;;
69894;SDS011;57172;52.034;5.090;2023-02-15T12:46:13;45.00;;;27.92;;
69894;SDS011;57172;52.034;5.090;2023-02-15T12:48:51;47.88;;;27.88;;
69894;SDS011;57172;52.034;5.090;2023-02-15T12:54:38;44.20;;;27.23;;
69894;SDS011;57172;52.034;5.090;2023-02-15T12:59:58;41.15;;;25.60;;
69894;SDS011;57172;52.034;5.090;2023-02-15T13:05:25;42.05;;;26.40;;
69894;SDS011;57172;52.034;5.090;2023-02-15T13:07:55;44.97;;;26.02;;
69894;SDS011;57172;52.034;5.090;2023-02-15T13:10:29;41.10;;;24.57;;
69894;SDS011;57172;52.034;5.090;2023-02-15T13:12:59;42.88;;;25.77;;
69894;SDS011;57172;52.034;5.090;2023-02-15T13:17:57;43.72;;;25.58;;
69894;SDS011;57172;52.034;5.090;2023-02-15T13:20:24;45.03;;;26.98;;
69894;SDS011;57172;52.034;5.090;2023-02-15T13:22:55;41.27;;;26.17;;
69894;SDS011;57172;52.034;5.090;2023-02-15T13:25:26;46.67;;;27.33;;
69894;SDS011;57172;52.034;5.090;2023-02-15T13:28:03;44.40;;;26.77;;
69894;SDS011;57172;52.034;5.090;2023-02-15T13:30:35;47.38;;;26.95;;
69894;SDS011;57172;52.034;5.090;2023-02-15T13:33:06;46.38;;;26.33;;
69894;SDS011;57172;52.034;5.090;2023-02-15T13:41:46;48.38;;;27.30;;
69894;SDS011;57172;52.034;5.090;2023-02-15T13:50:11;41.00;;;24.43;;
69894;SDS011;57172;52.034;5.090;2023-02-15T13:52:54;44.03;;;24.52;;
69894;SDS011;57172;52.034;5.090;2023-02-15T13:55:37;42.50;;;23.83;;
69894;SDS011;57172;52.034;5.090;2023-02-15T14:03:52;45.63;;;24.57;;
69894;SDS011;57172;52.034;5.090;2023-02-15T14:23:26;43.03;;;24.70;;
69894;SDS011;57172;52.034;5.090;2023-02-15T14:26:14;41.08;;;23.45;;
69894;SDS011;57172;52.034;5.090;2023-02-15T14:28:49;45.67;;;24.30;;
69894;SDS011;57172;52.034;5.090;2023-02-15T14:31:29;44.77;;;23.63;;
69894;SDS011;57172;52.034;5.090;2023-02-15T14:34:01;45.47;;;23.77;;
69894;SDS011;57172;52.034;5.090;2023-02-15T14:36:28;45.47;;;25.58;;
69894;SDS011;57172;52.034;5.090;2023-02-15T14:39:02;44.40;;;24.55;;
69894;SDS011;57172;52.034;5.090;2023-02-15T14:42:27;44.65;;;23.98;;
69894;SDS011;57172;52.034;5.090;2023-02-15T14:47:44;46.17;;;23.67;;
69894;SDS011;57172;52.034;5.090;2023-02-15T15:01:31;46.95;;;26.25;;
69894;SDS011;57172;52.034;5.090;2023-02-15T15:04:23;49.25;;;26.00;;
69894;SDS011;57172;52.034;5.090;2023-02-15T15:07:02;50.55;;;27.50;;
69894;SDS011;57172;52.034;5.090;2023-02-15T15:09:33;50.45;;;25.92;;
69894;SDS011;57172;52.034;5.090;2023-02-15T15:14:42;45.83;;;24.23;;
69894;SDS011;57172;52.034;5.090;2023-02-15T15:17:10;51.55;;;26.00;;
69894;SDS011;57172;52.034;5.090;2023-02-15T15:22:29;52.67;;;27.83;;
69894;SDS011;57172;52.034;5.090;2023-02-15T15:24:58;53.00;;;27.80;;
69894;SDS011;57172;52.034;5.090;2023-02-15T15:27:47;50.08;;;24.88;;
69894;SDS011;57172;52.034;5.090;2023-02-15T15:32:50;52.60;;;25.38;;
69894;SDS011;57172;52.034;5.090;2023-02-15T15:35:27;51.17;;;27.60;;
69894;SDS011;57172;52.034;5.090;2023-02-15T15:41:16;52.63;;;26.90;;
69894;SDS011;57172;52.034;5.090;2023-02-15T15:46:32;57.00;;;27.30;;
69894;SDS011;57172;52.034;5.090;2023-02-15T15:49:20;51.90;;;27.45;;
69894;SDS011;57172;52.034;5.090;2023-02-15T15:51:49;54.90;;;26.73;;
69894;SDS011;57172;52.034;5.090;2023-02-15T15:54:18;53.50;;;27.55;;
69894;SDS011;57172;52.034;5.090;2023-02-15T15:56:53;48.47;;;25.17;;
69894;SDS011;57172;52.034;5.090;2023-02-15T15:59:30;49.78;;;25.95;;
69894;SDS011;57172;52.034;5.090;2023-02-15T16:02:11;51.45;;;26.30;;
69894;SDS011;57172;52.034;5.090;2023-02-15T16:04:42;53.20;;;26.83;;
69894;SDS011;57172;52.034;5.090;2023-02-15T16:07:14;54.95;;;27.73;;
69894;SDS011;57172;52.034;5.090;2023-02-15T16:12:23;51.35;;;27.38;;
69894;SDS011;57172;52.034;5.090;2023-02-15T16:14:52;52.90;;;27.35;;
69894;SDS011;57172;52.034;5.090;2023-02-15T16:17:22;58.70;;;28.80;;
69894;SDS011;57172;52.034;5.090;2023-02-15T16:19:51;53.53;;;27.98;;
69894;SDS011;57172;52.034;5.090;2023-02-15T16:22:23;53.25;;;27.92;;
69894;SDS011;57172;52.034;5.090;2023-02-15T16:27:46;48.70;;;25.48;;
69894;SDS011;57172;52.034;5.090;2023-02-15T16:32:47;50.80;;;25.38;;
69894;SDS011;57172;52.034;5.090;2023-02-15T16:35:16;57.28;;;28.33;;
69894;SDS011;57172;52.034;5.090;2023-02-15T16:37:44;51.45;;;26.73;;
69894;SDS011;57172;52.034;5.090;2023-02-15T16:40:25;64.72;;;34.92;;
69894;SDS011;57172;52.034;5.090;2023-02-15T16:43:02;60.10;;;30.77;;
69894;SDS011;57172;52.034;5.090;2023-02-15T16:45:33;58.92;;;28.92;;
69894;SDS011;57172;52.034;5.090;2023-02-15T16:48:05;56.25;;;28.02;;
69894;SDS011;57172;52.034;5.090;2023-02-15T16:50:37;54.53;;;27.77;;
69894;SDS011;57172;52.034;5.090;2023-02-15T16:53:05;54.83;;;26.05;;
69894;SDS011;57172;52.034;5.090;2023-02-15T16:55:40;54.03;;;26.57;;
69894;SDS011;57172;52.034;5.090;2023-02-15T16:58:12;54.05;;;25.90;;
69894;SDS011;57172;52.034;5.090;2023-02-15T17:00:41;56.78;;;26.95;;
69894;SDS011;57172;52.034;5.090;2023-02-15T17:05:52;56.67;;;28.40;;
69894;SDS011;57172;52.034;5.090;2023-02-15T17:08:27;57.67;;;28.70;;
69894;SDS011;57172;52.034;5.090;2023-02-15T17:11:21;58.15;;;28.98;;
69894;SDS011;57172;52.034;5.090;2023-02-15T17:14:10;59.38;;;28.38;;
69894;SDS011;57172;52.034;5.090;2023-02-15T17:19:22;62.28;;;29.92;;
69894;SDS011;57172;52.034;5.090;2023-02-15T17:21:58;60.23;;;29.53;;
69894;SDS011;57172;52.034;5.090;2023-02-15T17:24:43;60.00;;;29.60;;
69894;SDS011;57172;52.034;5.090;2023-02-15T17:27:15;55.60;;;28.67;;
69894;SDS011;57172;52.034;5.090;2023-02-15T17:29:50;58.83;;;29.50;;
69894;SDS011;57172;52.034;5.090;2023-02-15T17:32:20;58.90;;;29.88;;
69894;SDS011;57172;52.034;5.090;2023-02-15T17:39:58;57.75;;;28.92;;
69894;SDS011;57172;52.034;5.090;2023-02-15T17:42:26;57.40;;;27.00;;
69894;SDS011;57172;52.034;5.090;2023-02-15T17:44:53;60.25;;;28.58;;
69894;SDS011;57172;52.034;5.090;2023-02-15T17:47:21;55.47;;;27.97;;
69894;SDS011;57172;52.034;5.090;2023-02-15T17:49:50;58.33;;;27.58;;
69894;SDS011;57172;52.034;5.090;2023-02-15T17:52:18;59.90;;;28.27;;
69894;SDS011;57172;52.034;5.090;2023-02-15T17:54:45;53.22;;;26.63;;
69894;SDS011;57172;52.034;5.090;2023-02-15T17:57:31;61.58;;;27.48;;
69894;SDS011;57172;52.034;5.090;2023-02-15T17:59:58;52.07;;;25.13;;
69894;SDS011;57172;52.034;5.090;2023-02-15T18:02:43;52.50;;;25.58;;
69894;SDS011;57172;52.034;5.090;2023-02-15T18:05:30;56.17;;;27.20;;
69894;SDS011;57172;52.034;5.090;2023-02-15T18:08:16;46.75;;;21.75;;
69894;SDS011;57172;52.034;5.090;2023-02-15T18:11:11;53.03;;;26.52;;
69894;SDS011;57172;52.034;5.090;2023-02-15T18:13:57;51.50;;;23.77;;
69894;SDS011;57172;52.034;5.090;2023-02-15T18:16:28;57.47;;;26.80;;
69894;SDS011;57172;52.034;5.090;2023-02-15T18:18:58;54.05;;;26.58;;
69894;SDS011;57172;52.034;5.090;2023-02-15T18:21:25;49.45;;;24.30;;
69894;SDS011;57172;52.034;5.090;2023-02-15T18:23:52;56.50;;;25.52;;
69894;SDS011;57172;52.034;5.090;2023-02-15T18:26:20;54.73;;;26.70;;